Time;durP1;ratioP1;P1;durP2;ratioP2;P2;SDS_P1;SDS_P2;PMS_P1;PMS_P2;Temp;Humidity;BMP_temperature;BMP_pressure;BME280_temperature;BME280_humidity;BME280_pressure;Samples;Min_cycle;Max_cycle;Signal;HPM_P1;HPM_P2
2023/12/28 00:00:14;;;;;;;1.83;1.27;;;6.90;78.80;;;;;;5049149;28;20196;-72
2023/12/28 00:02:41;;;;;;;1.30;1.20;;;6.90;79.20;;;;;;5050623;28;20218;-72
2023/12/28 00:05:08;;;;;;;2.63;1.45;;;6.90;78.90;;;;;;5045518;27;20236;-72
2023/12/28 00:07:35;;;;;;;1.33;1.23;;;6.90;78.50;;;;;;5048563;28;20573;-72
2023/12/28 00:10:04;;;;;;;1.40;1.30;;;7.00;77.50;;;;;;5046626;27;20200;-72
2023/12/28 00:12:31;;;;;;;1.75;1.30;;;7.00;78.20;;;;;;5046185;28;20200;-72
2023/12/28 00:14:57;;;;;;;0.95;0.95;;;7.00;76.60;;;;;;5055851;28;20258;-73
2023/12/28 00:17:24;;;;;;;1.25;0.88;;;6.90;77.10;;;;;;5065035;28;20226;-73
2023/12/28 00:19:51;;;;;;;1.50;1.40;;;6.90;78.10;;;;;;5063161;28;20672;-73
2023/12/28 00:22:18;;;;;;;1.85;1.35;;;6.80;78.10;;;;;;5062792;28;20622;-73
2023/12/28 00:24:45;;;;;;;1.30;1.20;;;6.90;77.00;;;;;;5061860;28;20230;-73
2023/12/28 00:27:13;;;;;;;1.98;1.67;;;7.00;77.20;;;;;;5061581;28;20195;-73
2023/12/28 00:29:41;;;;;;;1.85;1.42;;;6.90;78.60;;;;;;5060844;28;20234;-73
2023/12/28 00:32:09;;;;;;;2.10;1.75;;;6.90;78.20;;;;;;5058593;27;20548;-73
2023/12/28 00:34:36;;;;;;;1.08;0.93;;;6.80;78.60;;;;;;5056052;27;20200;-73
2023/12/28 00:37:03;;;;;;;1.65;1.52;;;6.80;78.90;;;;;;5055937;27;20259;-73
2023/12/28 00:39:30;;;;;;;1.48;1.38;;;6.80;79.00;;;;;;5058777;28;20645;-73
2023/12/28 00:41:56;;;;;;;1.17;1.08;;;6.80;79.20;;;;;;5054610;28;20203;-73
2023/12/28 00:44:24;;;;;;;2.55;1.30;;;6.80;79.10;;;;;;5055719;28;20297;-73
2023/12/28 00:46:51;;;;;;;1.20;1.10;;;6.80;78.80;;;;;;5054671;28;20315;-73
2023/12/28 00:49:18;;;;;;;1.23;1.13;;;6.70;79.30;;;;;;5055308;27;20295;-73
2023/12/28 00:51:45;;;;;;;1.67;1.57;;;6.80;78.40;;;;;;5064696;27;20199;-73
2023/12/28 00:54:11;;;;;;;1.85;1.65;;;6.70;77.80;;;;;;5049137;28;20707;-73
2023/12/28 00:56:38;;;;;;;1.80;1.23;;;6.70;79.50;;;;;;5050815;28;20204;-73
2023/12/28 00:59:05;;;;;;;2.38;1.10;;;6.70;80.00;;;;;;5043611;28;20626;-73
2023/12/28 01:01:33;;;;;;;1.10;1.00;;;6.70;79.40;;;;;;5049281;28;20462;-73
2023/12/28 01:04:00;;;;;;;2.05;1.52;;;6.70;78.20;;;;;;5046112;28;20526;-73
2023/12/28 01:06:28;;;;;;;2.53;1.13;;;6.80;78.40;;;;;;5046334;28;20228;-73
2023/12/28 01:08:55;;;;;;;1.48;1.17;;;6.70;77.80;;;;;;5047277;28;20195;-73
2023/12/28 01:11:22;;;;;;;1.73;1.58;;;6.70;78.80;;;;;;5044964;28;20236;-73
2023/12/28 01:13:49;;;;;;;2.33;1.85;;;6.80;79.10;;;;;;5046630;28;20287;-73
2023/12/28 01:16:16;;;;;;;1.27;1.20;;;6.90;78.30;;;;;;5064279;28;20283;-73
2023/12/28 01:18:44;;;;;;;1.95;1.33;;;6.90;78.00;;;;;;5063109;28;20274;-73
2023/12/28 01:21:11;;;;;;;1.63;1.52;;;6.90;76.60;;;;;;5047768;28;20239;-73
2023/12/28 01:23:38;;;;;;;1.75;1.65;;;7.00;76.80;;;;;;5062378;28;20502;-73
2023/12/28 01:26:05;;;;;;;1.10;1.10;;;7.00;76.80;;;;;;5090922;27;20347;-73
2023/12/28 01:28:31;;;;;;;1.63;1.17;;;7.00;77.00;;;;;;5060823;28;20199;-73
2023/12/28 01:30:58;;;;;;;1.02;0.93;;;7.10;77.50;;;;;;5057170;28;20200;-73
2023/12/28 01:33:25;;;;;;;1.42;1.33;;;7.00;77.60;;;;;;5057444;28;20607;-73
2023/12/28 01:35:53;;;;;;;1.30;1.20;;;6.90;78.50;;;;;;5055046;28;20203;-73
2023/12/28 01:38:20;;;;;;;1.25;1.15;;;7.00;76.40;;;;;;5057283;28;20503;-73
2023/12/28 01:40:47;;;;;;;2.28;1.35;;;7.10;76.50;;;;;;5056080;28;20562;-73
2023/12/28 01:43:13;;;;;;;1.50;1.40;;;7.10;76.20;;;;;;5054719;28;20295;-73
2023/12/28 01:45:40;;;;;;;0.98;0.95;;;7.10;77.50;;;;;;5055617;27;20648;-73
2023/12/28 01:48:08;;;;;;;1.50;1.13;;;7.10;77.20;;;;;;5051772;28;20208;-73
2023/12/28 01:50:35;;;;;;;2.70;1.25;;;7.10;76.60;;;;;;5068079;27;20199;-73
2023/12/28 01:53:03;;;;;;;1.58;1.48;;;7.00;77.40;;;;;;5050460;28;20200;-73
2023/12/28 01:55:31;;;;;;;1.60;1.15;;;6.90;78.70;;;;;;5048006;28;20385;-73
2023/12/28 01:57:59;;;;;;;1.90;1.17;;;6.80;79.80;;;;;;5049602;28;20290;-73
2023/12/28 02:00:26;;;;;;;1.05;0.90;;;6.80;78.20;;;;;;5047946;28;20205;-73
2023/12/28 02:02:54;;;;;;;1.75;1.58;;;6.70;79.40;;;;;;5048113;28;20287;-72
2023/12/28 02:05:22;;;;;;;1.60;1.50;;;6.80;79.20;;;;;;5043956;28;20259;-72
2023/12/28 02:07:49;;;;;;;1.70;1.50;;;6.80;79.20;;;;;;5047417;28;20200;-72
2023/12/28 02:10:18;;;;;;;2.13;1.95;;;6.80;79.30;;;;;;5045220;28;20212;-72
2023/12/28 02:12:47;;;;;;;1.33;1.10;;;6.60;80.80;;;;;;5045395;28;20212;-72
2023/12/28 02:15:14;;;;;;;0.95;0.90;;;6.60;80.80;;;;;;5044128;28;20248;-72
2023/12/28 02:17:48;;;;;;;1.60;1.50;;;6.50;81.30;;;;;;5059349;28;20568;-72
2023/12/28 02:20:16;;;;;;;1.40;1.00;;;6.20;80.60;;;;;;5061757;28;20407;-72
2023/12/28 02:22:43;;;;;;;1.55;1.10;;;6.40;80.80;;;;;;5061767;28;20207;-72
2023/12/28 02:25:12;;;;;;;1.30;1.20;;;6.30;82.00;;;;;;5061014;28;20227;-72
2023/12/28 02:27:42;;;;;;;1.17;1.15;;;6.40;82.00;;;;;;5060080;28;20199;-72
2023/12/28 02:30:10;;;;;;;4.82;1.48;;;6.40;81.10;;;;;;5057870;28;20241;-72
2023/12/28 02:32:46;;;;;;;1.33;1.20;;;6.40;81.70;;;;;;5059124;28;20206;-72
2023/12/28 02:35:20;;;;;;;1.73;1.50;;;6.40;82.70;;;;;;5052424;28;20603;-72
2023/12/28 02:37:51;;;;;;;1.60;1.23;;;6.40;81.90;;;;;;5057019;28;20997;-72
2023/12/28 02:40:21;;;;;;;1.00;0.90;;;6.30;81.90;;;;;;5053802;28;20207;-72
2023/12/28 02:42:49;;;;;;;1.23;1.13;;;6.20;82.70;;;;;;5055327;28;20663;-72
2023/12/28 02:45:17;;;;;;;1.65;1.35;;;6.20;82.40;;;;;;5053319;28;20280;-72
2023/12/28 02:47:45;;;;;;;1.20;1.08;;;6.30;81.90;;;;;;5054073;27;20276;-72
2023/12/28 02:50:13;;;;;;;1.52;1.42;;;6.40;81.80;;;;;;5066523;27;20200;-72
2023/12/28 02:52:40;;;;;;;1.42;1.33;;;6.40;81.10;;;;;;5050299;28;20207;-72
2023/12/28 02:55:08;;;;;;;1.77;1.67;;;6.30;82.20;;;;;;5046053;28;20759;-72
2023/12/28 02:57:38;;;;;;;2.85;1.13;;;6.30;81.70;;;;;;5050906;28;20204;-72
2023/12/28 03:00:08;;;;;;;1.23;0.80;;;6.30;82.60;;;;;;5064034;27;20557;-73
2023/12/28 03:02:36;;;;;;;0.95;0.90;;;6.20;82.70;;;;;;5049100;28;20256;-72
2023/12/28 03:05:05;;;;;;;1.70;1.30;;;6.10;83.00;;;;;;5044325;28;20614;-72
2023/12/28 03:07:32;;;;;;;1.23;1.13;;;6.10;83.00;;;;;;5046129;28;20223;-73
2023/12/28 03:09:59;;;;;;;1.20;1.10;;;6.20;83.00;;;;;;5045011;28;20956;-72
2023/12/28 03:12:26;;;;;;;1.00;0.90;;;6.20;82.80;;;;;;5044982;27;20642;-72
2023/12/28 03:14:54;;;;;;;0.95;0.95;;;6.20;82.60;;;;;;5044549;28;20200;-72
2023/12/28 03:17:21;;;;;;;2.17;1.15;;;6.30;82.80;;;;;;5042998;28;20214;-73
2023/12/28 03:19:48;;;;;;;1.35;1.00;;;6.20;82.30;;;;;;5059750;28;20211;-72
2023/12/28 03:22:15;;;;;;;1.52;1.40;;;6.10;83.20;;;;;;5061228;28;20207;-72
2023/12/28 03:24:45;;;;;;;1.25;1.15;;;6.20;83.40;;;;;;5060724;28;20207;-72
2023/12/28 03:27:12;;;;;;;1.20;1.08;;;6.20;83.60;;;;;;5051353;28;20262;-72
2023/12/28 03:29:42;;;;;;;1.73;1.52;;;6.20;83.90;;;;;;5060856;28;20200;-72
2023/12/28 03:32:10;;;;;;;1.35;1.25;;;6.20;84.70;;;;;;5058612;28;20538;-72
2023/12/28 03:34:38;;;;;;;0.80;0.80;;;6.20;84.30;;;;;;5057266;28;20294;-72
2023/12/28 03:37:05;;;;;;;1.13;1.00;;;6.20;83.00;;;;;;5055035;28;20200;-72
2023/12/28 03:39:34;;;;;;;0.93;0.93;;;6.10;84.50;;;;;;5060635;28;20218;-73
2023/12/28 03:42:02;;;;;;;1.50;1.35;;;6.10;84.40;;;;;;5056119;28;20242;-72
2023/12/28 03:44:32;;;;;;;1.65;1.52;;;6.10;84.20;;;;;;5048085;28;20208;-72
2023/12/28 03:47:00;;;;;;;1.30;1.20;;;6.10;84.70;;;;;;5054800;28;20223;-72
2023/12/28 03:49:28;;;;;;;2.20;1.45;;;6.10;84.30;;;;;;5064169;27;20291;-72
2023/12/28 03:51:56;;;;;;;0.90;0.90;;;6.00;84.70;;;;;;5059972;27;20601;-72
2023/12/28 03:54:23;;;;;;;1.50;1.02;;;6.10;83.80;;;;;;5067872;27;20224;-72
2023/12/28 03:56:50;;;;;;;1.40;1.10;;;6.40;80.90;;;;;;5078727;27;20199;-72
2023/12/28 03:59:18;;;;;;;2.00;1.30;;;6.50;81.60;;;;;;5087859;27;20193;-72
2023/12/28 04:01:46;;;;;;;1.02;1.02;;;6.60;81.50;;;;;;5088017;27;20204;-72
2023/12/28 04:04:14;;;;;;;0.88;0.88;;;6.80;80.40;;;;;;5078833;27;20221;-72
2023/12/28 04:06:43;;;;;;;1.98;1.05;;;6.80;80.30;;;;;;5080854;27;20241;-72
2023/12/28 04:09:12;;;;;;;3.45;0.98;;;6.90;80.60;;;;;;5086797;27;20291;-72
2023/12/28 04:11:40;;;;;;;0.85;0.85;;;7.00;79.70;;;;;;5048450;28;20203;-71
2023/12/28 04:14:07;;;;;;;0.95;0.95;;;7.00;79.40;;;;;;5047056;28;20196;-72
2023/12/28 04:16:34;;;;;;;1.92;1.33;;;7.10;79.50;;;;;;5052513;28;20295;-72
2023/12/28 04:19:00;;;;;;;1.50;1.15;;;7.10;79.30;;;;;;5050977;28;20772;-72
2023/12/28 04:21:27;;;;;;;1.35;1.25;;;7.20;78.30;;;;;;5049470;28;20207;-72
2023/12/28 04:23:55;;;;;;;1.23;1.15;;;7.30;77.80;;;;;;5050327;28;20223;-72
2023/12/28 04:26:22;;;;;;;1.92;1.02;;;7.40;76.80;;;;;;5048103;28;20315;-72
2023/12/28 04:28:49;;;;;;;1.17;0.93;;;7.40;78.10;;;;;;5048627;28;20205;-72
2023/12/28 04:31:15;;;;;;;1.20;1.20;;;7.30;78.30;;;;;;5046393;28;20288;-72
2023/12/28 04:33:42;;;;;;;0.98;0.93;;;7.30;78.50;;;;;;5042329;28;21189;-72
2023/12/28 04:36:09;;;;;;;1.30;1.20;;;7.30;78.70;;;;;;5045795;28;20555;-72
2023/12/28 04:38:36;;;;;;;1.40;1.30;;;7.30;78.30;;;;;;5060825;28;20648;-72
2023/12/28 04:41:04;;;;;;;1.63;1.20;;;7.30;78.80;;;;;;5061549;28;20224;-72
2023/12/28 04:43:31;;;;;;;1.73;1.00;;;7.40;79.90;;;;;;5063622;27;20980;-71
2023/12/28 04:45:58;;;;;;;1.20;1.10;;;7.40;79.20;;;;;;5061012;28;20780;-72
2023/12/28 04:48:25;;;;;;;2.60;1.27;;;7.50;79.40;;;;;;5062020;28;20748;-72
2023/12/28 04:50:52;;;;;;;1.47;1.33;;;7.50;78.80;;;;;;5087168;27;20981;-72
2023/12/28 04:53:19;;;;;;;0.93;0.93;;;7.50;77.80;;;;;;5058688;28;20617;-72
2023/12/28 04:55:46;;;;;;;2.07;1.20;;;7.60;78.00;;;;;;5054206;28;20722;-72
2023/12/28 04:58:14;;;;;;;1.20;0.93;;;7.60;77.80;;;;;;5057651;28;20631;-72
2023/12/28 05:00:41;;;;;;;1.87;1.10;;;7.60;78.40;;;;;;5058242;28;20870;-72
2023/12/28 05:03:08;;;;;;;1.20;1.10;;;7.50;78.70;;;;;;5051125;28;20627;-72
2023/12/28 05:05:34;;;;;;;1.40;1.30;;;7.60;78.50;;;;;;5048249;28;20753;-72
2023/12/28 05:08:01;;;;;;;1.23;1.20;;;7.50;79.30;;;;;;5053565;28;20623;-72
2023/12/28 05:10:28;;;;;;;1.60;1.40;;;7.50;80.00;;;;;;5053999;28;20641;-72
2023/12/28 05:12:55;;;;;;;1.40;1.27;;;7.50;78.80;;;;;;5052972;28;20630;-72
2023/12/28 05:15:23;;;;;;;1.80;1.13;;;7.60;78.20;;;;;;5051460;27;20630;-72
2023/12/28 05:17:50;;;;;;;1.47;1.20;;;7.60;79.30;;;;;;5052271;28;20626;-72
2023/12/28 05:20:17;;;;;;;1.50;1.38;;;7.70;78.70;;;;;;5049268;27;20634;-72
2023/12/28 05:22:44;;;;;;;1.10;1.00;;;7.70;78.90;;;;;;5051076;28;20200;-72
2023/12/28 05:25:12;;;;;;;0.80;0.73;;;7.70;78.90;;;;;;5048110;28;20693;-72
2023/12/28 05:27:39;;;;;;;1.00;0.90;;;7.70;79.90;;;;;;5048147;27;20658;-72
2023/12/28 05:30:07;;;;;;;1.30;1.20;;;7.80;79.40;;;;;;5039632;28;20678;-72
2023/12/28 05:32:36;;;;;;;1.03;0.90;;;7.90;78.60;;;;;;5046451;28;20635;-72
2023/12/28 05:35:03;;;;;;;0.67;0.67;;;8.00;78.50;;;;;;5040699;28;20633;-72
2023/12/28 05:37:30;;;;;;;1.93;1.10;;;8.10;78.40;;;;;;5051411;28;20659;-72
2023/12/28 05:39:57;;;;;;;1.43;0.87;;;8.10;78.30;;;;;;5062376;28;20621;-73
2023/12/28 05:42:24;;;;;;;1.33;1.00;;;8.00;78.90;;;;;;5063050;27;20732;-73
2023/12/28 05:44:50;;;;;;;1.60;1.30;;;8.10;78.20;;;;;;5061307;28;20636;-73
2023/12/28 05:47:17;;;;;;;1.10;0.90;;;8.10;78.30;;;;;;5061226;28;20784;-73
2023/12/28 05:49:45;;;;;;;1.10;0.80;;;8.20;78.80;;;;;;5088275;27;20625;-73
2023/12/28 05:52:14;;;;;;;1.00;0.93;;;8.10;79.60;;;;;;5057476;28;21273;-73
2023/12/28 05:54:42;;;;;;;1.17;0.67;;;8.10;78.80;;;;;;5052048;28;20626;-73
2023/12/28 05:57:09;;;;;;;1.37;1.23;;;8.10;79.30;;;;;;5053721;28;20687;-73
2023/12/28 05:59:38;;;;;;;1.00;1.00;;;8.00;80.40;;;;;;5058074;27;20985;-73
2023/12/28 06:02:05;;;;;;;1.40;1.10;;;8.00;80.20;;;;;;5053357;28;21197;-73
2023/12/28 06:04:33;;;;;;;1.27;1.10;;;8.00;80.90;;;;;;5051887;27;20664;-73
2023/12/28 06:07:01;;;;;;;1.33;0.80;;;8.10;80.70;;;;;;5052803;27;21044;-73
2023/12/28 06:09:29;;;;;;;1.97;1.17;;;8.10;80.60;;;;;;5054133;27;20641;-73
2023/12/28 06:11:55;;;;;;;1.43;1.33;;;8.10;80.60;;;;;;5051856;28;20632;-73
2023/12/28 06:14:22;;;;;;;1.10;0.90;;;8.00;81.40;;;;;;5050678;28;20634;-73
2023/12/28 06:16:49;;;;;;;1.23;1.10;;;7.90;81.50;;;;;;5051813;28;20628;-73
2023/12/28 06:19:15;;;;;;;1.60;1.50;;;7.90;82.20;;;;;;5049135;28;20626;-73
2023/12/28 06:21:43;;;;;;;1.40;0.93;;;7.80;82.20;;;;;;5048812;28;20634;-73
2023/12/28 06:24:11;;;;;;;1.13;1.03;;;7.80;82.40;;;;;;5047441;28;20635;-73
2023/12/28 06:26:40;;;;;;;2.60;1.30;;;7.80;82.50;;;;;;5047227;28;20661;-73
2023/12/28 06:29:07;;;;;;;1.13;1.03;;;7.80;82.80;;;;;;5057876;27;20618;-73
2023/12/28 06:31:35;;;;;;;1.53;1.20;;;7.80;82.40;;;;;;5044664;28;20630;-73
2023/12/28 06:34:02;;;;;;;1.00;0.97;;;7.90;83.20;;;;;;5040881;28;21186;-73
2023/12/28 06:36:29;;;;;;;0.70;0.70;;;7.90;83.10;;;;;;5043692;28;20634;-73
2023/12/28 06:38:56;;;;;;;2.10;1.57;;;8.00;83.40;;;;;;5061366;28;20628;-73
2023/12/28 06:41:24;;;;;;;1.53;1.20;;;8.00;83.10;;;;;;5061768;28;20652;-73
2023/12/28 06:43:51;;;;;;;1.43;1.33;;;8.00;83.50;;;;;;5060576;28;20626;-73
2023/12/28 06:46:18;;;;;;;1.77;1.00;;;8.10;83.70;;;;;;5060492;28;20628;-73
2023/12/28 06:48:45;;;;;;;1.30;1.10;;;8.10;83.30;;;;;;5058770;28;20641;-73
2023/12/28 06:51:17;;;;;;;1.50;1.40;;;8.10;84.10;;;;;;5084183;27;20630;-73
2023/12/28 06:53:44;;;;;;;1.47;1.00;;;8.00;85.40;;;;;;5053431;28;20741;-73
2023/12/28 06:56:11;;;;;;;1.00;0.90;;;8.10;86.50;;;;;;5053438;28;20641;-73
2023/12/28 06:58:39;;;;;;;1.40;1.30;;;8.10;86.00;;;;;;5056951;28;21229;-73
2023/12/28 07:01:06;;;;;;;1.20;1.10;;;8.20;85.50;;;;;;5052477;27;20981;-73
2023/12/28 07:03:33;;;;;;;3.50;1.13;;;8.20;85.70;;;;;;5054969;28;20967;-73
2023/12/28 07:06:00;;;;;;;1.13;0.90;;;8.20;87.70;;;;;;5055778;28;20705;-73
2023/12/28 07:08:26;;;;;;;1.97;1.20;;;8.10;88.20;;;;;;5056210;28;20681;-73
2023/12/28 07:10:53;;;;;;;2.60;1.37;;;8.10;88.70;;;;;;5054996;28;20625;-72
2023/12/28 07:13:20;;;;;;;1.50;1.27;;;8.10;89.50;;;;;;5053302;28;20631;-73
2023/12/28 07:15:48;;;;;;;1.83;1.13;;;8.20;89.40;;;;;;5048959;28;21246;-73
2023/12/28 07:18:15;;;;;;;1.33;1.23;;;8.20;90.10;;;;;;5051998;28;20734;-73
2023/12/28 07:20:42;;;;;;;1.03;0.93;;;8.20;90.10;;;;;;5052450;28;20630;-73
2023/12/28 07:23:09;;;;;;;1.50;1.40;;;8.10;90.40;;;;;;5043784;28;20632;-73
2023/12/28 07:25:36;;;;;;;1.30;1.20;;;8.20;90.90;;;;;;5049858;28;20619;-73
2023/12/28 07:28:04;;;;;;;1.47;1.07;;;8.20;90.50;;;;;;5049347;28;20685;-72
2023/12/28 07:30:31;;;;;;;1.90;1.80;;;8.20;91.20;;;;;;5047659;27;20638;-73
2023/12/28 07:32:59;;;;;;;1.00;0.83;;;8.20;90.40;;;;;;5047753;28;20658;-73
2023/12/28 07:35:26;;;;;;;1.90;1.23;;;8.20;90.10;;;;;;5042455;28;20627;-73
2023/12/28 07:37:54;;;;;;;1.20;1.10;;;8.30;90.10;;;;;;5063590;27;20634;-73
2023/12/28 07:40:21;;;;;;;1.17;1.07;;;8.30;90.00;;;;;;5051770;27;20665;-73
2023/12/28 07:42:48;;;;;;;1.40;1.20;;;8.30;90.20;;;;;;5055594;28;20763;-73
2023/12/28 07:45:15;;;;;;;1.67;1.17;;;8.30;90.40;;;;;;5049463;28;20731;-73
2023/12/28 07:47:41;;;;;;;4.50;2.27;;;8.30;90.50;;;;;;5063160;27;20670;-73
2023/12/28 07:50:11;;;;;;;7.10;3.33;;;8.30;90.70;;;;;;5086122;27;20622;-72
2023/12/28 07:52:38;;;;;;;4.00;2.90;;;8.30;91.20;;;;;;5061741;28;20626;-72
2023/12/28 07:55:05;;;;;;;2.70;2.00;;;8.30;91.10;;;;;;5050966;27;20615;-72
2023/12/28 07:57:34;;;;;;;2.53;2.20;;;8.30;91.30;;;;;;5059876;27;20614;-72
2023/12/28 08:00:00;;;;;;;1.70;1.60;;;8.30;91.50;;;;;;5056866;27;20619;-72
2023/12/28 08:02:28;;;;;;;3.93;3.00;;;8.20;91.50;;;;;;5058439;28;20972;-73
2023/12/28 08:04:55;;;;;;;4.97;4.10;;;8.20;91.40;;;;;;5051140;28;20618;-72
2023/12/28 08:07:23;;;;;;;4.83;3.93;;;8.30;91.90;;;;;;5055332;28;20825;-72
2023/12/28 08:09:50;;;;;;;2.93;2.70;;;8.30;91.90;;;;;;5055635;28;20986;-72
2023/12/28 08:12:18;;;;;;;2.77;1.73;;;8.20;91.90;;;;;;5052179;27;21012;-72
2023/12/28 08:14:44;;;;;;;2.17;1.80;;;8.20;92.10;;;;;;5049155;28;20644;-72
2023/12/28 08:17:11;;;;;;;4.10;2.30;;;8.20;92.20;;;;;;5051453;28;21193;-72
2023/12/28 08:19:38;;;;;;;2.50;2.30;;;8.20;92.30;;;;;;5052340;28;21320;-72
2023/12/28 08:22:05;;;;;;;2.57;1.90;;;8.20;92.80;;;;;;5050163;28;20626;-72
2023/12/28 08:24:34;;;;;;;3.67;2.50;;;8.20;92.90;;;;;;5048822;28;20638;-72
2023/12/28 08:27:01;;;;;;;2.63;2.03;;;8.20;92.70;;;;;;5049412;27;20661;-72
2023/12/28 08:29:28;;;;;;;2.60;2.30;;;8.30;92.50;;;;;;5048237;28;20738;-73
2023/12/28 08:31:55;;;;;;;3.50;2.40;;;8.20;92.80;;;;;;5047319;28;20631;-72
2023/12/28 08:34:22;;;;;;;2.50;2.30;;;8.30;92.70;;;;;;5042672;27;20637;-73
2023/12/28 08:36:49;;;;;;;4.40;3.57;;;8.30;93.00;;;;;;5046717;28;20619;-72
2023/12/28 08:39:16;;;;;;;5.60;3.53;;;8.30;92.90;;;;;;5064638;27;20641;-73
2023/12/28 08:41:44;;;;;;;3.57;3.10;;;8.30;92.80;;;;;;5064264;28;20642;-72
2023/12/28 08:44:10;;;;;;;6.03;4.70;;;8.40;93.80;;;;;;5096064;27;20651;-72
2023/12/28 08:46:37;;;;;;;10.00;6.27;;;8.30;93.50;;;;;;5063247;27;20615;-72
2023/12/28 08:49:04;;;;;;;9.17;7.07;;;8.30;94.30;;;;;;5066053;27;21171;-72
2023/12/28 08:51:31;;;;;;;7.97;6.73;;;8.30;93.80;;;;;;5082751;27;21218;-72
2023/12/28 08:53:58;;;;;;;16.53;7.73;;;8.30;94.10;;;;;;5053511;28;20987;-72
2023/12/28 08:56:24;;;;;;;15.20;6.53;;;8.30;94.30;;;;;;5057372;28;20634;-72
2023/12/28 08:58:54;;;;;;;6.90;5.20;;;8.30;94.20;;;;;;5058821;28;20754;-72
2023/12/28 09:01:22;;;;;;;7.73;4.23;;;8.40;94.10;;;;;;5056882;28;21167;-72
2023/12/28 09:03:50;;;;;;;2.37;2.03;;;8.40;94.20;;;;;;5052769;28;20670;-72
2023/12/28 09:06:17;;;;;;;3.80;2.97;;;8.50;93.70;;;;;;5054783;28;20638;-72
2023/12/28 09:08:44;;;;;;;3.10;2.33;;;8.50;93.80;;;;;;5056453;28;20673;-72
2023/12/28 09:11:12;;;;;;;4.43;3.30;;;8.60;93.50;;;;;;5052473;28;20659;-71
2023/12/28 09:13:39;;;;;;;3.07;2.67;;;8.60;93.40;;;;;;5054834;28;20623;-73
2023/12/28 09:16:10;;;;;;;6.17;2.10;;;8.60;93.90;;;;;;5051389;28;20627;-72
2023/12/28 09:18:38;;;;;;;2.30;2.10;;;8.70;93.50;;;;;;5052067;28;20654;-72
2023/12/28 09:21:05;;;;;;;3.80;2.47;;;8.80;93.70;;;;;;5049810;27;21194;-72
2023/12/28 09:23:32;;;;;;;2.37;2.17;;;8.80;94.60;;;;;;5049753;28;20623;-72
2023/12/28 09:26:00;;;;;;;2.47;1.17;;;8.80;94.30;;;;;;5049306;28;20626;-72
2023/12/28 09:28:27;;;;;;;1.17;1.07;;;8.80;94.50;;;;;;5047006;28;20676;-72
2023/12/28 09:30:53;;;;;;;1.73;1.00;;;8.90;94.30;;;;;;5047404;28;20627;-72
2023/12/28 09:33:22;;;;;;;2.47;1.63;;;9.00;94.10;;;;;;5045239;28;20635;-72
2023/12/28 09:35:49;;;;;;;2.67;1.20;;;9.00;94.80;;;;;;5044167;28;20627;-72
2023/12/28 09:38:16;;;;;;;1.23;1.00;;;9.20;94.00;;;;;;5045233;28;20637;-72
2023/12/28 09:40:43;;;;;;;1.33;1.07;;;9.30;94.00;;;;;;5060066;28;21226;-72
2023/12/28 09:43:16;;;;;;;2.60;1.37;;;9.30;93.90;;;;;;5062997;28;21052;-72
2023/12/28 09:45:42;;;;;;;1.97;1.73;;;9.40;93.40;;;;;;5062630;28;20627;-72
2023/12/28 09:48:08;;;;;;;1.80;1.47;;;9.40;93.30;;;;;;5060757;27;20691;-72
2023/12/28 09:50:37;;;;;;;2.30;1.90;;;9.40;93.30;;;;;;5089825;27;20197;-72
2023/12/28 09:53:04;;;;;;;2.80;1.77;;;9.40;93.40;;;;;;5056882;28;22049;-73
2023/12/28 09:55:30;;;;;;;2.77;2.07;;;9.50;93.00;;;;;;5052408;27;20620;-73
2023/12/28 09:58:00;;;;;;;1.60;1.50;;;9.50;93.50;;;;;;5057429;28;20637;-73
2023/12/28 10:00:27;;;;;;;1.33;1.17;;;9.50;93.30;;;;;;5057450;28;21224;-73
2023/12/28 10:02:54;;;;;;;2.83;2.27;;;9.50;93.00;;;;;;5056734;28;20636;-71
2023/12/28 10:05:20;;;;;;;1.20;1.10;;;9.60;92.90;;;;;;5050881;28;21003;-72
2023/12/28 10:07:49;;;;;;;1.77;1.47;;;9.60;92.60;;;;;;5055860;28;20670;-72
2023/12/28 10:10:16;;;;;;;2.03;0.90;;;9.70;92.70;;;;;;5052067;28;20625;-72
2023/12/28 10:12:43;;;;;;;1.30;1.20;;;9.80;92.10;;;;;;5054960;28;20709;-71
2023/12/28 10:15:10;;;;;;;1.87;1.30;;;9.90;91.70;;;;;;5046791;28;20853;-72
2023/12/28 10:17:37;;;;;;;2.10;1.20;;;9.90;91.90;;;;;;5052553;28;20644;-73
2023/12/28 10:20:07;;;;;;;0.70;0.60;;;9.80;91.60;;;;;;5049725;27;21241;-72
2023/12/28 10:22:34;;;;;;;1.00;1.00;;;10.00;90.70;;;;;;5049931;28;20642;-72
2023/12/28 10:25:04;;;;;;;2.00;1.33;;;10.00;90.80;;;;;;5049272;27;20638;-72
2023/12/28 10:27:31;;;;;;;1.90;1.20;;;10.00;90.80;;;;;;5047292;28;21065;-72
2023/12/28 10:29:58;;;;;;;1.53;1.10;;;10.00;91.10;;;;;;5044881;28;20630;-72
2023/12/28 10:32:25;;;;;;;3.23;1.03;;;10.00;91.00;;;;;;5046276;28;20634;-72
2023/12/28 10:34:53;;;;;;;1.90;1.23;;;10.00;90.90;;;;;;5042559;28;20633;-72
2023/12/28 10:37:20;;;;;;;1.30;1.10;;;10.00;90.80;;;;;;5044826;28;20634;-73
2023/12/28 10:39:50;;;;;;;1.20;1.17;;;10.00;90.80;;;;;;5044050;28;20640;-72
2023/12/28 10:42:28;;;;;;;1.20;1.10;;;10.00;91.40;;;;;;5055781;28;20644;-73
2023/12/28 10:45:02;;;;;;;3.10;1.30;;;10.00;91.60;;;;;;5062339;28;20625;-72
2023/12/28 10:47:32;;;;;;;1.30;1.20;;;10.10;91.20;;;;;;5061970;27;20968;-72
2023/12/28 10:50:04;;;;;;;1.07;0.97;;;10.20;91.50;;;;;;5090041;27;20629;-72
2023/12/28 10:52:33;;;;;;;1.83;1.30;;;10.30;91.40;;;;;;5060485;28;20675;-72
2023/12/28 10:55:31;;;;;;;1.20;1.10;;;10.40;91.50;;;;;;5050079;28;20653;-72
2023/12/28 10:58:10;;;;;;;2.10;1.33;;;10.40;91.90;;;;;;5057011;27;20633;-72
2023/12/28 11:00:42;;;;;;;1.10;1.00;;;10.50;92.00;;;;;;5048519;28;20632;-73
2023/12/28 11:03:12;;;;;;;2.30;1.30;;;10.50;92.10;;;;;;5054127;27;20643;-72
2023/12/28 11:05:41;;;;;;;2.10;1.40;;;10.50;92.40;;;;;;5048338;28;20633;-72
2023/12/28 11:08:09;;;;;;;0.83;0.83;;;10.50;92.70;;;;;;5052985;28;21221;-73
2023/12/28 11:10:39;;;;;;;1.00;1.00;;;10.50;92.80;;;;;;5054591;28;20639;-72
2023/12/28 11:13:09;;;;;;;1.50;1.30;;;10.50;92.90;;;;;;5051991;28;21208;-72
2023/12/28 11:15:37;;;;;;;1.80;1.70;;;10.50;93.00;;;;;;5053286;28;20720;-72
2023/12/28 11:18:04;;;;;;;1.47;1.00;;;10.50;93.40;;;;;;5050618;27;20640;-73
2023/12/28 11:20:32;;;;;;;1.43;1.17;;;10.60;93.50;;;;;;5049880;27;20634;-73
2023/12/28 11:22:59;;;;;;;1.60;1.03;;;10.60;93.70;;;;;;5049918;28;20631;-73
2023/12/28 11:25:32;;;;;;;0.87;0.87;;;10.60;93.80;;;;;;5048097;28;20729;-73
2023/12/28 11:27:59;;;;;;;0.83;0.83;;;10.60;94.10;;;;;;5045202;28;20661;-73
2023/12/28 11:30:28;;;;;;;1.13;1.10;;;10.50;94.30;;;;;;5046293;28;20741;-73
2023/12/28 11:32:58;;;;;;;1.10;1.00;;;10.50;94.30;;;;;;5047204;28;20622;-73
2023/12/28 11:35:32;;;;;;;2.50;1.40;;;10.50;94.60;;;;;;5041284;28;20641;-71
2023/12/28 11:38:02;;;;;;;3.13;1.27;;;10.50;95.00;;;;;;5044860;28;20634;-72
2023/12/28 11:40:29;;;;;;;1.20;0.97;;;10.50;95.00;;;;;;5043015;27;21090;-72
2023/12/28 11:42:56;;;;;;;1.73;1.20;;;10.50;94.80;;;;;;5044194;28;20641;-73
2023/12/28 11:45:24;;;;;;;1.43;1.33;;;10.50;95.10;;;;;;5062409;28;20621;-72
2023/12/28 11:48:01;;;;;;;0.97;0.70;;;10.50;94.70;;;;;;5060451;27;20683;-72
2023/12/28 11:50:28;;;;;;;1.43;1.10;;;10.50;94.60;;;;;;5061215;27;20632;-73
2023/12/28 11:52:55;;;;;;;1.80;1.57;;;10.50;94.50;;;;;;5061811;28;20698;-73
2023/12/28 11:55:23;;;;;;;0.93;0.93;;;10.40;94.60;;;;;;5052448;28;20618;-72
2023/12/28 11:57:50;;;;;;;1.37;1.03;;;10.50;94.30;;;;;;5061260;28;20645;-72
2023/12/28 12:00:17;;;;;;;1.37;1.27;;;10.50;94.40;;;;;;5059753;28;20645;-72
2023/12/28 12:02:45;;;;;;;1.20;1.10;;;10.50;94.50;;;;;;5060892;28;20636;-72
2023/12/28 12:05:15;;;;;;;1.40;1.03;;;10.50;94.50;;;;;;5049642;28;20631;-72
2023/12/28 12:07:42;;;;;;;1.10;0.93;;;10.50;94.70;;;;;;5059053;28;20636;-72
2023/12/28 12:10:14;;;;;;;1.10;1.10;;;10.50;94.50;;;;;;5055129;28;20657;-72
2023/12/28 12:12:42;;;;;;;0.77;0.77;;;10.40;95.10;;;;;;5049748;28;21007;-73
2023/12/28 12:15:10;;;;;;;0.80;0.80;;;10.40;95.10;;;;;;5054079;27;21211;-73
2023/12/28 12:17:37;;;;;;;1.37;1.23;;;10.40;94.80;;;;;;5055607;27;20633;-72
2023/12/28 12:20:05;;;;;;;1.60;1.47;;;10.50;94.50;;;;;;5052264;28;20737;-72
2023/12/28 12:22:34;;;;;;;0.97;0.90;;;10.50;94.20;;;;;;5053030;28;20668;-72
2023/12/28 12:25:05;;;;;;;2.67;1.50;;;10.50;95.10;;;;;;5052281;28;20625;-72
2023/12/28 12:27:32;;;;;;;2.17;1.70;;;10.40;94.90;;;;;;5050663;28;21150;-72
2023/12/28 12:29:58;;;;;;;1.50;1.37;;;10.40;95.70;;;;;;5050748;28;20669;-72
2023/12/28 12:32:25;;;;;;;1.03;0.90;;;10.50;94.90;;;;;;5048477;28;21200;-73
2023/12/28 12:34:52;;;;;;;1.37;1.27;;;10.50;95.20;;;;;;5046114;28;20637;-72
2023/12/28 12:37:19;;;;;;;1.50;1.40;;;10.50;94.80;;;;;;5047479;28;20634;-73
2023/12/28 12:39:47;;;;;;;1.93;1.30;;;10.50;95.30;;;;;;5047523;28;21169;-72
2023/12/28 12:42:14;;;;;;;1.27;1.10;;;10.50;95.80;;;;;;5045704;28;20635;-73
2023/12/28 12:44:41;;;;;;;1.50;1.40;;;10.50;96.00;;;;;;5045970;28;20637;-73
2023/12/28 12:47:08;;;;;;;1.77;1.40;;;10.50;95.50;;;;;;5063306;28;20669;-73
2023/12/28 12:49:35;;;;;;;1.43;1.13;;;10.50;95.30;;;;;;5063733;28;20673;-73
2023/12/28 12:52:02;;;;;;;1.20;1.10;;;10.50;95.40;;;;;;5061649;27;20634;-73
2023/12/28 12:54:29;;;;;;;1.30;1.00;;;10.50;95.30;;;;;;5056877;28;20716;-73
2023/12/28 12:56:58;;;;;;;1.40;1.27;;;10.60;94.90;;;;;;5058453;28;20610;-73